Westlake, Ohio
Current Conditions -  °F | °C
As of 2:51 AM on Friday 31 Oct 2014 (Local Time) from KCLE Reporting Station
Overcast Overcast  
Wind Chill: 40°   Ceiling: 4800
Heat Index: 44°   Visibility: 10mi
Dew Point: 35°   Wind: 7mph
Humidity: 71%   Direction: 200°SSW
Pressure: 30.02"   Gusts: NA
Location:  41.46°N, 81.92°W
Report Text: KCLE 310651Z 20006KT 10SM OVC048 07/02 A3002 RMK AO2 SLP167 T00670017
Loading
Personal Weather Stations






























Interactive Weather Map
Tropical Storm Tracking
New forecast layout! Learn more

10-Day Weather Forecast

Advertisements
Track Severe Weather on mobile